M I D A S
Marine Information and Data Acquisition System
Tripno 2274 of the Zeeleeuw from 2012-03-09 08:22:30 to 2012-03-09 14:03:56
Back to CruiseResearch ActivitiesStationsMapUnderway DataData graphs

EquipmentUnitsComment
TimeDGPSUTC
LatitudeDGPSDM.mWGS84
LongitudeDGPSDM.mWGS84
HeadingGyrodeg 
SOGDGPSknotsSpeed over ground
COGDGPSdegCourse over ground
DepthEcho soundermeters200 kHz
Missing or incorrect values are displayed as -999
Navigation data collected by the RV Zeeleeuw from 2012-03-09 07:51:19 to 2012-03-09 14:16:54
Time Latitude Longitude Heading SOG COG Depth
2012-03-09 07:52:24 51°13.638 2°56.015 125.7 0.1 12 -999
2012-03-09 07:53:24 51°13.636 2°56.018 125.7 0.1 140 -999
2012-03-09 07:54:24 51°13.635 2°56.019 126 -999 347 -999
2012-03-09 07:55:24 51°13.637 2°56.018 126 0.1 241 -999
2012-03-09 07:56:24 51°13.638 2°56.016 125.8 0.1 46 -999
2012-03-09 07:57:24 51°13.64 2°56.015 125.9 0.1 18 -999
2012-03-09 07:58:24 51°13.64 2°56.016 126 0.1 86 -999
2012-03-09 07:59:24 51°13.638 2°56.018 126.1 0.3 44 -999
2012-03-09 08:00:24 51°13.638 2°56.018 126.1 0.1 11 -999
2012-03-09 08:01:24 51°13.637 2°56.017 126.2 0.2 219 -999
2012-03-09 08:02:24 51°13.639 2°56.017 126.2 0.2 25 -999
2012-03-09 08:03:24 51°13.638 2°56.017 126.3 0.1 5 -999
2012-03-09 08:04:24 51°13.638 2°56.017 126.3 -999 220 -999
2012-03-09 08:05:24 51°13.637 2°56.017 126.3 0.1 230 -999
2012-03-09 08:06:24 51°13.636 2°56.016 126.4 0.2 223 -999
2012-03-09 08:07:24 51°13.637 2°56.018 126.4 0.1 17 -999
2012-03-09 08:08:24 51°13.637 2°56.019 126.6 0.1 236 -999
2012-03-09 08:09:24 51°13.638 2°56.018 126.5 0.2 43 -999
2012-03-09 08:10:24 51°13.637 2°56.018 126.9 -999 158 -999
2012-03-09 08:11:24 51°13.637 2°56.019 126.5 0.1 346 -999
2012-03-09 08:12:24 51°13.638 2°56.019 124.9 0.1 13 -999
2012-03-09 08:13:24 51°13.637 2°56.018 124.9 0.1 338 -999
2012-03-09 08:14:24 51°13.637 2°56.017 127 -999 3 -999
2012-03-09 08:15:24 51°13.637 2°56.019 127.9 0.2 51 -999
2012-03-09 08:16:24 51°13.636 2°56.018 125 0.2 199 -999
2012-03-09 08:17:24 51°13.636 2°56.018 117.4 0.1 45 -999
2012-03-09 08:18:24 51°13.635 2°56.017 110.8 0.1 337 -999
2012-03-09 08:19:24 51°13.644 2°55.983 108.8 3.4 295 -999
2012-03-09 08:20:24 51°13.661 2°55.929 112.2 1 320 -999
2012-03-09 08:21:24 51°13.685 2°55.857 119.8 4.8 299 -999
2012-03-09 08:22:24 51°13.734 2°55.742 132.2 4.9 308 -999
2012-03-09 08:23:24 51°13.801 2°55.66 153.3 5.7 332 -999
2012-03-09 08:24:24 51°13.878 2°55.606 161.7 4.7 339 -999
2012-03-09 08:25:24 51°13.941 2°55.576 166.4 3.2 344 9.1
2012-03-09 08:26:24 51°13.988 2°55.557 178.9 1.3 344 -999
2012-03-09 08:27:23 51°13.995 2°55.549 234.4 1.8 39 9.1
2012-03-09 08:28:24 51°14.013 2°55.595 284.7 1.9 303 -999
2012-03-09 08:29:23 51°14.082 2°55.466 319 8.2 323 9.1
2012-03-09 08:30:23 51°14.198 2°55.352 330.8 8.1 330 9.1
2012-03-09 08:31:24 51°14.317 2°55.242 331.8 8 330 -999
2012-03-09 08:32:23 51°14.43 2°55.136 331.7 8.1 333 9.5
2012-03-09 08:33:22 51°14.553 2°55.019 329.4 9.8 325 10.4
2012-03-09 08:34:20 51°14.689 2°54.866 333.1 10.5 327 10.3
2012-03-09 08:35:20 51°14.849 2°54.748 349.2 10.7 346 9.4
2012-03-09 08:36:20 51°15.029 2°54.711 359.9 10.9 357 8.1
2012-03-09 08:37:20 51°15.206 2°54.679 354.1 10.8 347 7.3
2012-03-09 08:38:20 51°15.37 2°54.609 356.8 8.3 350 8.3
2012-03-09 08:39:20 51°15.474 2°54.571 350.4 5.4 338 8.6
2012-03-09 08:40:20 51°15.548 2°54.505 338.7 4.9 327 8.9
2012-03-09 08:41:20 51°15.619 2°54.435 341.5 5.1 330 9.1
2012-03-09 08:42:20 51°15.694 2°54.368 342.9 5.3 331 9.3
2012-03-09 08:43:20 51°15.773 2°54.305 348.1 5.3 335 9.5
2012-03-09 08:44:20 51°15.852 2°54.241 344.6 5.4 331 9.7
2012-03-09 08:45:20 51°15.928 2°54.163 337.5 5.5 325 9.8
2012-03-09 08:46:20 51°15.999 2°54.071 334.7 5.5 321 10
2012-03-09 08:47:20 51°16.072 2°53.984 336.6 5.5 324 10.2
2012-03-09 08:48:20 51°16.146 2°53.907 340.7 5.3 328 10.3
2012-03-09 08:49:20 51°16.22 2°53.831 338.7 5.2 326 10.6
2012-03-09 08:50:20 51°16.292 2°53.75 333.7 5.3 322 10.8
2012-03-09 08:51:20 51°16.355 2°53.647 321.3 5.5 309 11.1
2012-03-09 08:52:20 51°16.413 2°53.531 322.3 5.6 310 11.2
2012-03-09 08:53:20 51°16.479 2°53.427 327.7 5.5 317 11.3
2012-03-09 08:54:20 51°16.546 2°53.332 330.6 5.3 321 11.3
2012-03-09 08:55:20 51°16.614 2°53.244 331.3 5.2 322 11.3
2012-03-09 08:56:20 51°16.677 2°53.147 325.1 5.3 315 10.8
2012-03-09 08:57:20 51°16.741 2°53.05 328.6 5.2 319 10.5
2012-03-09 08:58:20 51°16.807 2°52.962 332.4 5.2 321 9.1
2012-03-09 08:59:20 51°16.875 2°52.88 335.3 5 324 8.6
2012-03-09 09:00:20 51°16.94 2°52.797 332.6 5 320 8.9
2012-03-09 09:01:20 51°17.002 2°52.709 331.2 5.1 319 9.3
2012-03-09 09:02:20 51°17.065 2°52.623 334.6 4.9 320 9.1
2012-03-09 09:03:20 51°17.131 2°52.549 340.5 4.9 327 9.1
2012-03-09 09:04:20 51°17.2 2°52.476 338.7 5 326 9.3
2012-03-09 09:05:20 51°17.269 2°52.395 335.8 5.2 322 9.8
2012-03-09 09:06:20 51°17.335 2°52.307 332.4 5.2 318 9.9
2012-03-09 09:07:20 51°17.402 2°52.218 336.6 5.3 322 10.8
2012-03-09 09:08:20 51°17.473 2°52.143 340.2 5.1 327 10.8
2012-03-09 09:09:20 51°17.542 2°52.063 335.5 5.2 321 10.8
2012-03-09 09:10:20 51°17.607 2°51.972 332.5 5.2 318 10
2012-03-09 09:11:20 51°17.672 2°51.882 335.4 5.1 321 9.8
2012-03-09 09:12:20 51°17.741 2°51.802 339.9 5 325 9.7
2012-03-09 09:13:20 51°17.809 2°51.721 337.6 5.2 323 9.8
2012-03-09 09:14:20 51°17.876 2°51.634 334.3 5.1 320 9.8
2012-03-09 09:15:20 51°17.941 2°51.541 333.1 5.3 318 10.1
2012-03-09 09:16:20 51°18.009 2°51.45 336.1 5.3 323 10.6
2012-03-09 09:17:20 51°18.079 2°51.366 340.1 5.3 325 11.1
2012-03-09 09:18:20 51°18.15 2°51.28 337.7 5.3 320 11.8
2012-03-09 09:19:20 51°18.216 2°51.183 334.2 5.4 316 12.3
2012-03-09 09:20:20 51°18.28 2°51.084 334.4 5.4 317 12.7
2012-03-09 09:21:20 51°18.346 2°50.988 335.5 5.3 318 13.2
2012-03-09 09:22:20 51°18.414 2°50.899 340.4 5.2 323 13.5
2012-03-09 09:23:20 51°18.483 2°50.81 337.5 5.4 318 13.8
2012-03-09 09:24:20 51°18.549 2°50.71 333.6 5.6 315 14.1
2012-03-09 09:25:20 51°18.613 2°50.604 333.3 5.6 315 14.3
2012-03-09 09:26:20 51°18.679 2°50.503 336.6 5.5 318 14.5
2012-03-09 09:27:20 51°18.747 2°50.409 339.6 5.4 319 14.3
2012-03-09 09:28:20 51°18.816 2°50.318 335.7 5.4 316 13.9
2012-03-09 09:29:20 51°18.875 2°50.201 323.1 5.8 305 13.1
2012-03-09 09:30:20 51°18.923 2°50.067 313.2 5.7 295 12.4
2012-03-09 09:31:20 51°18.963 2°49.93 313.4 5.6 297 11.8
2012-03-09 09:32:20 51°19.006 2°49.801 315.5 5.5 300 10.9
2012-03-09 09:33:20 51°19.053 2°49.678 318.9 5.4 304 10.9
2012-03-09 09:34:20 51°19.105 2°49.562 320 5.3 306 11.7
2012-03-09 09:35:20 51°19.157 2°49.446 318.7 5.5 305 12.7
2012-03-09 09:36:20 51°19.206 2°49.324 313.6 5.6 301 13.2
2012-03-09 09:37:20 51°19.253 2°49.192 313.4 5.8 299 13.2
2012-03-09 09:38:20 51°19.301 2°49.061 316.8 5.9 301 14.3
2012-03-09 09:39:20 51°19.354 2°48.936 324.2 5.7 308 16
2012-03-09 09:40:20 51°19.411 2°48.816 324.8 5.6 307 16.7
2012-03-09 09:41:20 51°19.469 2°48.697 326 5.6 308 17.8
2012-03-09 09:42:20 51°19.525 2°48.576 322.4 5.7 305 18.7
2012-03-09 09:43:20 51°19.576 2°48.449 317.9 5.8 301 20
2012-03-09 09:44:20 51°19.625 2°48.317 318.7 5.9 301 21.2
2012-03-09 09:45:20 51°19.678 2°48.189 321.6 5.7 305 21.8
2012-03-09 09:46:20 51°19.735 2°48.073 326.3 5.6 308 22.3
2012-03-09 09:47:20 51°19.788 2°47.95 319.6 5.6 302 22.1
2012-03-09 09:48:20 51°19.834 2°47.819 313.4 5.7 297 22.5
2012-03-09 09:49:20 51°19.878 2°47.684 313.8 5.8 299 22.2
2012-03-09 09:50:20 51°19.925 2°47.551 316.4 5.9 299 22.1
2012-03-09 09:51:20 51°19.973 2°47.42 315.9 5.8 300 21.6
2012-03-09 09:52:20 51°20.019 2°47.286 311.6 5.8 297 21.1
2012-03-09 09:53:20 51°20.062 2°47.149 312.4 5.9 298 20.1
2012-03-09 09:54:20 51°20.115 2°47.026 328.6 5.5 312 19.2
2012-03-09 09:55:20 51°20.182 2°46.943 348.2 4.9 330 18.7
2012-03-09 09:56:20 51°20.253 2°46.911 14 4.1 359 17.5
2012-03-09 09:57:20 51°20.31 2°46.946 47.9 3.5 42 15
2012-03-09 09:58:20 51°20.33 2°47.032 75.9 3.8 83 18.1
2012-03-09 09:59:20 51°20.341 2°47.136 74.3 4.4 78 18.8
2012-03-09 10:00:20 51°20.356 2°47.258 76.6 4.9 81 17.3
2012-03-09 10:01:20 51°20.358 2°47.388 87.6 5.2 96 18.9
2012-03-09 10:02:20 51°20.345 2°47.522 91.7 5.1 100 19.5
2012-03-09 10:03:20 51°20.334 2°47.657 89.5 5.1 96 20.8
2012-03-09 10:04:20 51°20.329 2°47.794 86.5 5.1 92 21.3
2012-03-09 10:05:20 51°20.329 2°47.931 85.5 5.2 90 21.9
2012-03-09 10:06:20 51°20.326 2°48.068 87.4 5.1 93 22.3
2012-03-09 10:07:20 51°20.32 2°48.207 88.1 5.2 94 22.7
2012-03-09 10:08:20 51°20.314 2°48.347 89.1 5.2 94 23
2012-03-09 10:09:20 51°20.308 2°48.486 87.1 5.2 92 23
2012-03-09 10:10:20 51°20.307 2°48.626 85 5.3 89 23
2012-03-09 10:11:20 51°20.306 2°48.766 86.1 5.3 91 23.3
2012-03-09 10:12:20 51°20.301 2°48.908 89.4 5.3 95 23.1
2012-03-09 10:13:20 51°20.292 2°49.05 90.2 5.3 94 23.1
2012-03-09 10:14:20 51°20.289 2°49.191 84.6 5.2 88 23.2
2012-03-09 10:15:20 51°20.291 2°49.334 84.9 5.4 89 22.6
2012-03-09 10:16:20 51°20.288 2°49.476 89.1 5.4 94 22.2
2012-03-09 10:17:20 51°20.28 2°49.62 89.1 5.4 94 21.6
2012-03-09 10:18:20 51°20.277 2°49.764 85.8 5.4 89 20.6
2012-03-09 10:19:20 51°20.277 2°49.909 85.6 5.5 91 19.8
2012-03-09 10:20:20 51°20.273 2°50.053 88.5 5.4 92 19.1
2012-03-09 10:21:20 51°20.266 2°50.2 88.5 5.6 95 18.3
2012-03-09 10:22:20 51°20.267 2°50.346 82 5.4 85 17.2
2012-03-09 10:23:20 51°20.279 2°50.491 76.3 5.5 80 16.8
2012-03-09 10:24:20 51°20.294 2°50.636 78.9 5.6 82 16.6
2012-03-09 10:25:20 51°20.304 2°50.784 82.8 5.6 87 15.5
2012-03-09 10:26:20 51°20.306 2°50.936 84.2 5.7 88 15.1
2012-03-09 10:27:20 51°20.346 2°51.054 41.8 5.1 37 15.2
2012-03-09 10:28:20 51°20.43 2°51.076 2.1 5.5 354 16.5
2012-03-09 10:29:20 51°20.524 2°51.053 358.8 5.7 351 17.3
2012-03-09 10:30:20 51°20.618 2°51.037 3.1 5.7 356 17.6
2012-03-09 10:31:20 51°20.711 2°51.033 6.2 5.6 359 18.3
2012-03-09 10:32:20 51°20.804 2°51.029 3.2 5.7 357 19.5
2012-03-09 10:33:20 51°20.899 2°51.01 358.3 5.8 351 20.9
2012-03-09 10:34:20 51°20.993 2°50.988 359.8 5.6 353 22.2
2012-03-09 10:35:20 51°21.089 2°50.972 2.9 5.9 357 23.2
2012-03-09 10:36:20 51°21.185 2°50.968 6.1 5.7 359 23.8
2012-03-09 10:37:20 51°21.282 2°50.962 4.4 5.8 359 24.7
2012-03-09 10:38:20 51°21.38 2°50.944 358.2 6 351 24.9
2012-03-09 10:39:20 51°21.475 2°50.921 358.8 5.7 352 24.6
2012-03-09 10:40:20 51°21.569 2°50.908 5.2 5.6 357 24.7
2012-03-09 10:41:20 51°21.663 2°50.908 5.8 5.6 1 25.3
2012-03-09 10:42:20 51°21.756 2°50.9 1.2 5.8 354 25
2012-03-09 10:43:20 51°21.852 2°50.88 358.4 5.8 353 24.6
2012-03-09 10:44:20 51°21.948 2°50.866 3.2 5.7 359 24
2012-03-09 10:45:20 51°22.043 2°50.865 6.1 5.7 359 23.8
2012-03-09 10:46:20 51°22.138 2°50.862 2.1 5.8 356 24
2012-03-09 10:47:20 51°22.233 2°50.845 358.3 5.8 353 23.9
2012-03-09 10:48:20 51°22.328 2°50.828 0.9 5.7 356 24.2
2012-03-09 10:49:20 51°22.425 2°50.821 5.2 5.7 -999 24.2
2012-03-09 10:50:20 51°22.521 2°50.82 5.2 5.8 358 23.8
2012-03-09 10:51:20 51°22.618 2°50.816 2.5 5.9 357 23.6
2012-03-09 10:52:20 51°22.712 2°50.813 2.6 5.6 3 23.7
2012-03-09 10:53:20 51°22.802 2°50.81 358.6 5.4 356 23
2012-03-09 10:54:20 51°22.891 2°50.807 359.7 5.3 359 22
2012-03-09 10:55:20 51°22.978 2°50.816 4.8 5.2 5 18.8
2012-03-09 10:56:20 51°23.064 2°50.832 4.3 5.3 7 16.9
2012-03-09 10:57:20 51°23.132 2°50.899 46.8 5.1 55 16.7
2012-03-09 10:58:20 51°23.158 2°51.034 72.8 5.5 79 14.8
2012-03-09 10:59:20 51°23.178 2°51.182 70.5 5.7 74 16.7
2012-03-09 11:00:20 51°23.204 2°51.329 65.2 5.8 72 16.6
2012-03-09 11:01:20 51°23.224 2°51.481 80.5 5.9 86 14.9
2012-03-09 11:02:20 51°23.22 2°51.641 89.5 6.1 96 17.9
2012-03-09 11:03:20 51°23.212 2°51.803 89.4 6.1 94 20.3
2012-03-09 11:04:20 51°23.191 2°51.96 106.1 6.1 109 23.6
2012-03-09 11:05:20 51°23.158 2°52.114 106.1 6.2 108 23
2012-03-09 11:06:20 51°23.125 2°52.271 107.5 6.2 110 24.8
2012-03-09 11:07:20 51°23.081 2°52.418 122.5 6.2 122 24.1
2012-03-09 11:08:20 51°23.016 2°52.538 146.4 5.8 143 23.7
2012-03-09 11:09:20 51°22.93 2°52.585 182.6 5.3 177 24.5
2012-03-09 11:10:20 51°22.852 2°52.543 224.2 4.7 218 25.3
2012-03-09 11:11:20 51°22.802 2°52.44 239.9 5.2 234 25.5
2012-03-09 11:12:20 51°22.743 2°52.329 232.2 5.7 229 24.5
2012-03-09 11:13:20 51°22.677 2°52.217 233.6 5.8 228 25
2012-03-09 11:14:20 51°22.618 2°52.102 237.4 5.6 232 25.2
2012-03-09 11:15:20 51°22.566 2°51.982 240.3 5.4 235 24.7
2012-03-09 11:16:20 51°22.51 2°51.868 234.8 5.4 231 24.8
2012-03-09 11:17:20 51°22.45 2°51.76 232.7 5.3 227 25
2012-03-09 11:18:20 51°22.394 2°51.648 240.6 5.3 237 25.6
2012-03-09 11:19:20 51°22.353 2°51.523 247.4 5.2 243 26.1
2012-03-09 11:20:20 51°22.313 2°51.397 244.2 5.3 241 25.8
2012-03-09 11:21:20 51°22.274 2°51.272 251.2 5.2 250 25.4
2012-03-09 11:22:20 51°22.249 2°51.138 256.9 5.2 257 25
2012-03-09 11:23:20 51°22.226 2°51.006 252.1 5.1 251 24.9
2012-03-09 11:24:20 51°22.191 2°50.881 243 5.2 241 25.3
2012-03-09 11:25:20 51°22.136 2°50.778 226.5 5.1 220 25.3
2012-03-09 11:26:20 51°22.069 2°50.694 226.8 5.1 221 25.5
2012-03-09 11:27:20 51°22.005 2°50.606 227.4 5.1 221 25
2012-03-09 11:28:20 51°21.944 2°50.514 229.7 5 226 25.2
2012-03-09 11:29:20 51°21.886 2°50.417 233.1 5 228 25.2
2012-03-09 11:30:20 51°21.832 2°50.318 232.7 5 229 25.1
2012-03-09 11:31:20 51°21.774 2°50.223 228.9 5 223 25.4
2012-03-09 11:32:20 51°21.71 2°50.136 226.5 5.1 219 25
2012-03-09 11:33:20 51°21.647 2°50.048 228 5 221 24.8
2012-03-09 11:34:20 51°21.591 2°49.951 235 5 229 24.6
2012-03-09 11:35:20 51°21.537 2°49.852 232.9 4.9 226 24.8
2012-03-09 11:36:20 51°21.479 2°49.762 228.1 4.8 222 24.7
2012-03-09 11:37:20 51°21.417 2°49.68 226.7 4.8 219 24.9
2012-03-09 11:38:20 51°21.357 2°49.597 231.3 4.7 225 25
2012-03-09 11:39:20 51°21.306 2°49.506 233.8 4.5 228 25.1
2012-03-09 11:40:20 51°21.254 2°49.42 231.2 4.5 225 25
2012-03-09 11:41:20 51°21.196 2°49.339 227.5 4.5 221 25
2012-03-09 11:42:20 51°21.146 2°49.253 232.7 4.5 229 25.2
2012-03-09 11:43:20 51°21.097 2°49.163 229.7 4.5 225 25.1
2012-03-09 11:44:20 51°21.043 2°49.08 226.5 4.5 224 25.2
2012-03-09 11:45:20 51°20.99 2°49 227.2 4.3 223 25.1
2012-03-09 11:46:20 51°20.942 2°48.911 232.7 4.6 232 24.7
2012-03-09 11:47:20 51°20.894 2°48.806 232.6 5 233 24.7
2012-03-09 11:48:20 51°20.842 2°48.701 230.2 5 230 24.9
2012-03-09 11:49:20 51°20.784 2°48.603 226.5 5.1 226 24.9
2012-03-09 11:50:20 51°20.726 2°48.504 230.1 5.2 229 24.5
2012-03-09 11:51:20 51°20.675 2°48.396 234.1 5.1 236 24.3
2012-03-09 11:52:20 51°20.622 2°48.29 230.2 5.1 230 24.3
2012-03-09 11:53:20 51°20.567 2°48.189 228.2 5 228 24.4
2012-03-09 11:54:20 51°20.511 2°48.092 228.1 5 229 24.5
2012-03-09 11:55:20 51°20.459 2°47.991 232.7 4.9 235 24.2
2012-03-09 11:56:20 51°20.412 2°47.88 233.9 5 236 24.3
2012-03-09 11:57:20 51°20.362 2°47.776 228.1 4.9 227 23.9
2012-03-09 11:58:20 51°20.305 2°47.682 227.3 4.8 227 24
2012-03-09 11:59:20 51°20.252 2°47.585 228.8 4.8 226 24.2
2012-03-09 12:00:20 51°20.182 2°47.524 206.9 4.9 196 24.3
2012-03-09 12:01:20 51°20.097 2°47.517 187.3 5.3 175 24.6
2012-03-09 12:02:20 51°20.007 2°47.553 175.8 5.7 159 25
2012-03-09 12:03:20 51°19.922 2°47.629 161.1 6.2 145 25.4
2012-03-09 12:04:20 51°19.844 2°47.749 149.3 6.5 132 25.6
2012-03-09 12:05:20 51°19.78 2°47.879 148.2 6 128 25.7
2012-03-09 12:06:20 51°19.72 2°47.998 151.8 5.6 130 25.9
2012-03-09 12:07:20 51°19.659 2°48.106 155.1 5.4 133 25.3
2012-03-09 12:08:20 51°19.596 2°48.211 154.7 5.6 133 24.6
2012-03-09 12:09:20 51°19.535 2°48.325 149.6 5.8 129 23.5
2012-03-09 12:10:20 51°19.476 2°48.447 149.4 5.9 128 22.3
2012-03-09 12:11:20 51°19.415 2°48.566 151.6 5.8 130 21.5
2012-03-09 12:12:20 51°19.355 2°48.674 155.6 5.2 132 20.5
2012-03-09 12:13:20 51°19.297 2°48.777 155.1 5.4 131 19.6
2012-03-09 12:14:20 51°19.241 2°48.886 151.6 5.4 128 18.9
2012-03-09 12:15:20 51°19.188 2°49.005 147.3 5.6 123 17.7
2012-03-09 12:16:20 51°19.137 2°49.131 145.6 5.7 123 15.8
2012-03-09 12:17:20 51°19.085 2°49.256 148.6 5.6 126 16.1
2012-03-09 12:18:20 51°19.029 2°49.375 149.8 5.6 127 15.5
2012-03-09 12:19:20 51°18.974 2°49.498 147.1 5.8 125 14.8
2012-03-09 12:20:20 51°18.92 2°49.628 143.5 6 122 14.3
2012-03-09 12:21:20 51°18.866 2°49.759 145.6 5.9 125 14.9
2012-03-09 12:22:20 51°18.81 2°49.885 148.8 5.7 128 16
2012-03-09 12:23:20 51°18.752 2°50.006 151.1 5.7 128 16.5
2012-03-09 12:24:20 51°18.696 2°50.127 149.3 5.8 125 17.5
2012-03-09 12:25:20 51°18.642 2°50.254 145.5 5.8 121 17.9
2012-03-09 12:26:20 51°18.596 2°50.387 143.5 5.6 117 18
2012-03-09 12:27:20 51°18.557 2°50.511 146 5.1 116 18.1
2012-03-09 12:28:20 51°18.52 2°50.627 149.6 4.7 118 18
2012-03-09 12:29:20 51°18.484 2°50.736 151.7 4.6 118 17.7
2012-03-09 12:30:20 51°18.446 2°50.852 147.5 5.2 117 17.4
2012-03-09 12:31:20 51°18.407 2°50.98 144.6 5.4 116 17.1
2012-03-09 12:32:20 51°18.365 2°51.096 150.3 4.9 123 16.9
2012-03-09 12:33:20 51°18.318 2°51.198 150.4 4.7 128 16.4
2012-03-09 12:34:20 51°18.272 2°51.308 141.3 5.2 118 16.2
2012-03-09 12:35:20 51°18.228 2°51.423 151.4 4.8 126 15.7
2012-03-09 12:36:20 51°18.176 2°51.508 168.9 4.2 142 15.3
2012-03-09 12:37:20 51°18.122 2°51.553 187.6 3.4 164 14.9
2012-03-09 12:38:20 51°18.071 2°51.561 206.2 2.8 187 14.7
2012-03-09 12:39:20 51°18.027 2°51.534 220.7 2.8 208 14.6
2012-03-09 12:40:20 51°17.995 2°51.481 236.2 3.3 239 14.5
2012-03-09 12:41:20 51°17.971 2°51.378 248.3 4.6 255 14.7
2012-03-09 12:42:20 51°17.95 2°51.253 249.8 5 257 14.7
2012-03-09 12:43:20 51°17.93 2°51.125 249 4.9 254 15.1
2012-03-09 12:44:20 51°17.914 2°50.994 252.3 5.1 261 15.3
2012-03-09 12:45:20 51°17.905 2°50.86 255.4 5.1 266 15.6
2012-03-09 12:46:20 51°17.893 2°50.725 254.2 5.1 261 15.9
2012-03-09 12:47:20 51°17.88 2°50.591 250.9 5.2 259 16.1
2012-03-09 12:48:20 51°17.863 2°50.457 249.6 5.1 257 16.3
2012-03-09 12:49:20 51°17.861 2°50.318 265.9 5.5 279 16.6
2012-03-09 12:50:20 51°17.88 2°50.173 269.3 5.6 281 16.7
2012-03-09 12:51:20 51°17.895 2°50.031 268.8 5.4 281 16.8
2012-03-09 12:52:20 51°17.911 2°49.888 269.4 5.5 280 17.2
2012-03-09 12:53:20 51°17.931 2°49.743 272.4 5.7 285 17.3
2012-03-09 12:54:20 51°17.969 2°49.601 289.6 6.1 304 17.2
2012-03-09 12:55:20 51°18.041 2°49.495 310.7 5.7 326 16.9
2012-03-09 12:56:20 51°18.121 2°49.416 311.3 5.6 328 16
2012-03-09 12:57:20 51°18.193 2°49.333 307.6 5.3 323 15.1
2012-03-09 12:58:20 51°18.265 2°49.249 307.2 5.3 324 15.1
2012-03-09 12:59:20 51°18.336 2°49.167 307.1 5.2 326 14.4
2012-03-09 13:00:20 51°18.415 2°49.097 316 5.5 334 14
2012-03-09 13:01:20 51°18.502 2°49.04 321.3 5.7 340 14.3
2012-03-09 13:02:20 51°18.595 2°48.998 328.9 5.9 348 14.2
2012-03-09 13:03:20 51°18.693 2°48.967 329.8 5.9 349 13.9
2012-03-09 13:04:20 51°18.79 2°48.936 327.4 5.9 347 14.6
2012-03-09 13:05:20 51°18.882 2°48.898 322.3 5.6 344 15.8
2012-03-09 13:06:20 51°18.974 2°48.858 324.2 5.8 345 16.8
2012-03-09 13:07:20 51°19.07 2°48.822 328.3 6 350 17.8
2012-03-09 13:08:20 51°19.17 2°48.793 328.9 6 349 18.6
2012-03-09 13:09:20 51°19.267 2°48.756 324.9 5.8 344 19.4
2012-03-09 13:10:20 51°19.356 2°48.706 322.6 5.6 339 20.3
2012-03-09 13:11:20 51°19.451 2°48.663 331.8 6.2 350 21.4
2012-03-09 13:12:20 51°19.556 2°48.637 329.5 6.5 350 22.2
2012-03-09 13:13:20 51°19.659 2°48.6 323.8 6.3 345 23.3
2012-03-09 13:14:20 51°19.76 2°48.557 324.5 6.3 347 24.7
2012-03-09 13:15:20 51°19.868 2°48.533 338.3 6.8 358 25.6
2012-03-09 13:16:20 51°19.977 2°48.54 344.8 6.3 5 25.9
2012-03-09 13:17:20 51°20.079 2°48.554 347.7 6.2 8 26.1
2012-03-09 13:18:20 51°20.19 2°48.588 3.4 7.2 15 26.2
2012-03-09 13:19:20 51°20.305 2°48.668 23.7 7.8 29 26.3
2012-03-09 13:20:20 51°20.406 2°48.801 45.7 8 46 26.3
2012-03-09 13:21:20 51°20.485 2°48.974 65.4 8 60 26.2
2012-03-09 13:22:20 51°20.537 2°49.169 84 7.8 74 26.3
2012-03-09 13:23:20 51°20.559 2°49.369 103.5 7.4 85 26.3
2012-03-09 13:24:20 51°20.549 2°49.552 128.7 6.4 105 26.4
2012-03-09 13:25:20 51°20.507 2°49.683 161.8 4.6 129 26.1
2012-03-09 13:26:20 51°20.452 2°49.76 174.3 4.6 143 25.4
2012-03-09 13:27:20 51°20.379 2°49.833 175.5 5.6 152 24.4
2012-03-09 13:28:20 51°20.293 2°49.894 179.7 5.6 158 23.1
2012-03-09 13:29:20 51°20.205 2°49.951 171.4 6 154 21.9
2012-03-09 13:30:20 51°20.115 2°50.047 156.9 6.8 141 20.5
2012-03-09 13:31:20 51°20.006 2°50.19 154.8 10.7 144 18.7
2012-03-09 13:32:20 51°19.839 2°50.351 162.4 12.1 153 17.3
2012-03-09 13:33:20 51°19.662 2°50.499 160.5 12.1 150 15.4
2012-03-09 13:34:20 51°19.493 2°50.682 155 12.2 146 15.8
2012-03-09 13:35:20 51°19.32 2°50.848 160.8 12 154 17.7
2012-03-09 13:36:20 51°19.141 2°50.988 161.7 12.1 153 18.4
2012-03-09 13:37:20 51°18.964 2°51.132 160.6 12 151 18.3
2012-03-09 13:38:20 51°18.794 2°51.299 155 12.1 148 17.9
2012-03-09 13:39:20 51°18.62 2°51.447 164.1 11.7 156 17
2012-03-09 13:40:20 51°18.445 2°51.575 162.8 11.5 155 16.1
2012-03-09 13:41:20 51°18.271 2°51.722 157.8 12.1 152 14.9
2012-03-09 13:42:20 51°18.093 2°51.859 163.2 11.7 156 14.1
2012-03-09 13:43:20 51°17.91 2°51.953 169.5 11.5 162 13.7
2012-03-09 13:44:20 51°17.735 2°52.083 162 11.5 154 14.4
2012-03-09 13:45:20 51°17.556 2°52.192 170.1 11.3 163 14.6
2012-03-09 13:46:20 51°17.376 2°52.295 163 11.7 157 13.9
2012-03-09 13:47:20 51°17.201 2°52.423 159 11.8 151 13.5
2012-03-09 13:48:20 51°17.025 2°52.563 161 11.9 154 13
2012-03-09 13:49:20 51°16.846 2°52.69 162.2 11.7 154 13
2012-03-09 13:50:20 51°16.671 2°52.839 160.4 11.9 153 14.5
2012-03-09 13:51:20 51°16.491 2°52.968 165.2 11.9 156 15.4
2012-03-09 13:52:20 51°16.315 2°53.113 159.9 11.8 152 15.5
2012-03-09 13:53:20 51°16.139 2°53.254 161.7 11.9 154 15.4
2012-03-09 13:54:20 51°15.962 2°53.387 161.7 11.8 155 15.2
2012-03-09 13:55:20 51°15.785 2°53.531 158.3 12.2 151 15.4
2012-03-09 13:56:20 51°15.618 2°53.713 150.3 12.3 142 15.1
2012-03-09 13:57:20 51°15.459 2°53.912 148.4 12 139 14.9
2012-03-09 13:58:20 51°15.302 2°54.112 148 12.1 142 14.8
2012-03-09 13:59:20 51°15.143 2°54.309 148.8 12.1 145 14.6
2012-03-09 14:00:20 51°14.98 2°54.498 147.9 12.2 139 14.7
2012-03-09 14:01:20 51°14.826 2°54.71 146 12.2 139 14.8
2012-03-09 14:02:20 51°14.669 2°54.917 147.4 12.2 140 14.5
2012-03-09 14:03:20 51°14.502 2°55.083 151.1 11.9 150 13.6
2012-03-09 14:04:21 51°14.352 2°55.23 149 8.7 148 -999
2012-03-09 14:05:24 51°14.245 2°55.326 151.8 6.5 152 -999
2012-03-09 14:06:22 51°14.151 2°55.4 155 7 155 13.5
2012-03-09 14:07:24 51°14.038 2°55.483 156.6 7.4 157 -999
2012-03-09 14:08:23 51°13.932 2°55.557 158.5 6.2 162 5
2012-03-09 14:09:22 51°13.848 2°55.624 152.5 5.8 151 -999
2012-03-09 14:10:22 51°13.764 2°55.707 144.3 5.8 143 -999
2012-03-09 14:11:23 51°13.703 2°55.812 127.1 5.2 127 -999
2012-03-09 14:12:24 51°13.661 2°55.912 122.1 3.9 122 -999
2012-03-09 14:13:24 51°13.642 2°55.992 104.5 2.3 99 -999
2012-03-09 14:14:24 51°13.639 2°56.012 123.9 0.4 137 -999
2012-03-09 14:15:24 51°13.637 2°56.019 124.4 0.3 100 -999
2012-03-09 14:16:24 51°13.638 2°56.017 126.7 0.5 316 -999